Time;durP1;ratioP1;P1;durP2;ratioP2;P2;SDS_P1;SDS_P2;PMS_P1;PMS_P2;Temp;Humidity;BMP_temperature;BMP_pressure;BME280_temperature;BME280_humidity;BME280_pressure;Samples;Min_cycle;Max_cycle;Signal;HPM_P1;HPM_P2
2021/05/08 00:01:36;;;;;;;4.13;0.30;;;13.40;99.90;;;;;;4983380;28;20030;-75
2021/05/08 00:04:04;;;;;;;0.20;0.20;;;13.40;99.90;;;;;;4998854;28;20062;-75
2021/05/08 00:06:30;;;;;;;0.20;0.20;;;13.30;99.90;;;;;;5006077;28;20629;-76
2021/05/08 00:08:56;;;;;;;1.08;0.38;;;13.30;99.90;;;;;;5008087;28;20408;-74
2021/05/08 00:11:22;;;;;;;1.33;0.40;;;13.20;99.90;;;;;;4992694;28;20018;-75
2021/05/08 00:13:47;;;;;;;0.20;0.17;;;13.30;99.90;;;;;;4987261;28;20044;-76
2021/05/08 00:16:13;;;;;;;0.30;0.30;;;13.20;99.90;;;;;;4989000;28;20084;-76
2021/05/08 00:18:39;;;;;;;3.28;0.30;;;13.30;99.90;;;;;;5009795;28;20029;-74
2021/05/08 00:21:05;;;;;;;0.40;0.30;;;13.20;99.90;;;;;;5008707;28;20030;-76
2021/05/08 00:23:31;;;;;;;0.13;0.13;;;13.20;99.90;;;;;;4992101;28;20425;-76
2021/05/08 00:25:57;;;;;;;0.13;0.10;;;13.20;99.90;;;;;;5009831;28;20122;-75
2021/05/08 00:28:23;;;;;;;0.68;0.20;;;13.20;99.90;;;;;;4987097;28;20137;-76
2021/05/08 00:30:49;;;;;;;3.22;0.22;;;13.20;99.90;;;;;;5009175;28;20084;-74
2021/05/08 00:33:14;;;;;;;6.97;0.52;;;13.20;99.90;;;;;;4989564;28;20045;-74
2021/05/08 00:35:40;;;;;;;0.25;0.20;;;13.20;99.90;;;;;;5010637;28;20511;-75
2021/05/08 00:38:06;;;;;;;3.55;0.43;;;13.20;99.90;;;;;;4985181;28;20045;-76
2021/05/08 00:40:31;;;;;;;1.50;0.20;;;13.20;99.90;;;;;;5009009;28;20033;-76
2021/05/08 00:42:57;;;;;;;0.30;0.15;;;13.10;99.90;;;;;;5004919;28;20105;-78
2021/05/08 00:45:23;;;;;;;1.63;0.28;;;13.10;99.90;;;;;;5001513;28;20040;-75
2021/05/08 00:47:50;;;;;;;0.50;0.50;;;13.20;99.90;;;;;;4981666;28;20188;-76
2021/05/08 00:50:18;;;;;;;1.00;0.82;;;13.30;99.90;;;;;;5008606;28;20048;-76
2021/05/08 00:52:45;;;;;;;0.30;0.30;;;13.30;99.90;;;;;;5008966;28;20109;-73
2021/05/08 00:55:11;;;;;;;0.30;0.30;;;13.20;99.90;;;;;;5001233;28;20059;-75
2021/05/08 00:57:37;;;;;;;0.32;0.25;;;13.20;99.90;;;;;;4988898;28;20157;-76
2021/05/08 01:00:08;;;;;;;1.10;0.28;;;13.20;99.90;;;;;;5010574;28;20100;-74
2021/05/08 01:02:34;;;;;;;0.10;0.10;;;13.20;99.90;;;;;;4988866;28;20037;-76
2021/05/08 01:05:00;;;;;;;2.08;0.40;;;13.20;99.90;;;;;;5004473;28;20040;-77
2021/05/08 01:07:26;;;;;;;0.40;0.40;;;13.10;99.90;;;;;;5011226;28;20018;-75
2021/05/08 01:09:52;;;;;;;0.80;0.65;;;13.10;99.90;;;;;;5000267;28;20472;-77
2021/05/08 01:12:18;;;;;;;0.38;0.38;;;13.10;99.90;;;;;;4979673;28;20045;-76
2021/05/08 01:14:45;;;;;;;0.32;0.30;;;13.00;99.90;;;;;;5005664;28;20041;-76
2021/05/08 01:17:10;;;;;;;0.30;0.30;;;13.10;99.90;;;;;;5009775;28;20040;-76
2021/05/08 01:19:36;;;;;;;0.80;0.47;;;13.10;99.90;;;;;;5010077;28;20030;-75
2021/05/08 01:22:02;;;;;;;1.23;0.40;;;13.10;99.90;;;;;;5010835;28;20109;-75
2021/05/08 01:24:28;;;;;;;0.50;0.50;;;13.20;99.90;;;;;;4999741;28;20025;-76
2021/05/08 01:26:54;;;;;;;0.30;0.30;;;13.20;99.90;;;;;;4989146;28;20509;-77
2021/05/08 01:29:20;;;;;;;0.60;0.50;;;13.20;99.90;;;;;;5011670;28;20080;-76
2021/05/08 01:31:46;;;;;;;0.55;0.45;;;13.30;99.90;;;;;;4994366;28;20105;-77
2021/05/08 01:34:12;;;;;;;0.40;0.40;;;13.20;99.90;;;;;;5010197;28;20069;-77
2021/05/08 01:36:38;;;;;;;0.82;0.40;;;13.20;99.90;;;;;;5021237;28;20084;-77
2021/05/08 01:39:05;;;;;;;0.20;0.20;;;13.10;99.90;;;;;;5002663;28;20029;-77
2021/05/08 01:41:30;;;;;;;0.30;0.30;;;13.00;99.90;;;;;;4989242;28;20026;-76
2021/05/08 01:43:56;;;;;;;1.65;0.38;;;13.00;99.90;;;;;;5018046;28;20026;-77
2021/05/08 01:46:22;;;;;;;0.50;0.43;;;13.10;99.90;;;;;;5003786;28;20060;-77
2021/05/08 01:48:48;;;;;;;1.52;0.47;;;13.10;99.90;;;;;;4998917;28;20132;-78
2021/05/08 01:51:14;;;;;;;0.98;0.45;;;13.10;99.90;;;;;;4995708;28;20041;-77
2021/05/08 01:53:40;;;;;;;0.52;0.40;;;13.10;99.90;;;;;;5011112;28;20030;-77
2021/05/08 01:56:07;;;;;;;1.75;0.40;;;13.00;99.90;;;;;;5009308;28;20030;-76
2021/05/08 01:58:36;;;;;;;0.38;0.30;;;13.00;99.90;;;;;;5015378;28;20026;-77
2021/05/08 02:01:03;;;;;;;0.40;0.40;;;13.00;99.90;;;;;;5014185;28;20099;-75
2021/05/08 02:03:29;;;;;;;0.30;0.30;;;13.00;99.90;;;;;;4994876;28;20029;-76
2021/05/08 02:05:55;;;;;;;0.30;0.30;;;13.00;99.90;;;;;;5006523;28;20031;-76
2021/05/08 02:08:21;;;;;;;0.80;0.32;;;13.10;99.90;;;;;;4992909;28;20025;-77
2021/05/08 02:10:47;;;;;;;1.95;0.50;;;13.00;99.90;;;;;;5007114;28;20033;-77
2021/05/08 02:13:14;;;;;;;0.45;0.43;;;13.00;99.90;;;;;;4995992;28;20113;-76
2021/05/08 02:15:41;;;;;;;0.60;0.30;;;12.90;99.90;;;;;;5008298;28;20440;-77
2021/05/08 02:18:07;;;;;;;0.43;0.30;;;12.90;99.90;;;;;;5002171;28;20040;-76
2021/05/08 02:20:39;;;;;;;0.32;0.32;;;12.90;99.90;;;;;;5014982;28;20030;-75
2021/05/08 02:23:06;;;;;;;;;;;12.90;99.90;;;;;;5001111;28;20500;-76
2021/05/08 02:25:32;;;;;;;1.00;0.40;;;13.00;99.90;;;;;;5018122;28;19916;-76
2021/05/08 02:27:58;;;;;;;2.03;0.47;;;13.00;99.90;;;;;;5018805;28;20030;-75
2021/05/08 02:30:26;;;;;;;0.43;0.43;;;13.00;99.90;;;;;;5018660;28;20033;-75
2021/05/08 02:32:53;;;;;;;0.52;0.52;;;13.00;99.90;;;;;;5000458;28;20022;-78
2021/05/08 02:35:20;;;;;;;0.40;0.40;;;13.00;99.90;;;;;;5014612;28;20026;-76
2021/05/08 02:37:46;;;;;;;0.30;0.20;;;13.00;99.90;;;;;;4997328;28;20580;-78
2021/05/08 02:40:18;;;;;;;0.20;0.20;;;13.00;99.90;;;;;;4994573;28;20038;-76
2021/05/08 02:42:44;;;;;;;0.10;0.10;;;13.00;99.90;;;;;;5013374;28;20049;-77
2021/05/08 02:45:11;;;;;;;0.32;0.32;;;13.00;99.90;;;;;;5012173;28;20030;-75
2021/05/08 02:47:39;;;;;;;0.68;0.43;;;13.00;99.90;;;;;;4996170;28;20101;-77
2021/05/08 02:50:06;;;;;;;0.25;0.25;;;13.00;99.90;;;;;;4995165;28;20042;-75
2021/05/08 02:52:31;;;;;;;0.32;0.32;;;13.00;99.90;;;;;;5015562;28;20037;-78
2021/05/08 02:54:57;;;;;;;5.15;0.32;;;12.90;99.90;;;;;;5011983;28;20488;-77
2021/05/08 02:57:23;;;;;;;0.30;0.30;;;13.00;99.90;;;;;;5010447;28;20057;-76
2021/05/08 02:59:49;;;;;;;0.45;0.45;;;13.00;99.90;;;;;;5014868;28;20034;-75
2021/05/08 03:02:15;;;;;;;0.50;0.35;;;13.00;99.90;;;;;;5017272;28;20030;-77
2021/05/08 03:04:40;;;;;;;3.60;0.80;;;13.00;99.90;;;;;;5002635;28;20333;-77
2021/05/08 03:07:06;;;;;;;0.30;0.30;;;13.00;99.90;;;;;;5013691;28;20040;-76
2021/05/08 03:09:32;;;;;;;0.52;0.32;;;13.00;99.90;;;;;;4995177;28;20125;-76
2021/05/08 03:12:00;;;;;;;0.43;0.40;;;13.10;99.90;;;;;;5013206;28;20049;-78
2021/05/08 03:14:27;;;;;;;0.47;0.47;;;13.10;99.90;;;;;;5018683;28;20022;-77
2021/05/08 03:16:52;;;;;;;2.15;0.40;;;13.10;99.90;;;;;;4991197;28;20026;-78
2021/05/08 03:19:18;;;;;;;0.70;0.50;;;13.10;99.90;;;;;;4997946;28;20386;-78
2021/05/08 03:21:44;;;;;;;0.52;0.50;;;13.10;99.90;;;;;;4992980;28;20041;-77
2021/05/08 03:24:10;;;;;;;0.68;0.40;;;13.00;99.90;;;;;;4998495;28;20026;-78
2021/05/08 03:26:36;;;;;;;2.40;0.47;;;13.00;99.90;;;;;;5000784;28;20046;-76
2021/05/08 03:29:03;;;;;;;1.60;0.80;;;13.10;99.90;;;;;;4997687;28;20042;-77
2021/05/08 03:31:29;;;;;;;2.05;0.75;;;13.00;99.90;;;;;;4994311;28;20029;-77
2021/05/08 03:33:55;;;;;;;1.02;0.93;;;13.10;99.90;;;;;;4998086;28;20030;-77
2021/05/08 03:36:21;;;;;;;0.70;0.40;;;13.20;99.90;;;;;;5018039;28;20029;-78
2021/05/08 03:38:46;;;;;;;0.65;0.57;;;13.20;99.90;;;;;;5000882;28;20030;-77
2021/05/08 03:41:12;;;;;;;0.40;0.40;;;13.10;99.90;;;;;;4992533;28;20034;-76
2021/05/08 03:43:38;;;;;;;0.80;0.47;;;13.10;99.90;;;;;;5003473;28;20082;-76
2021/05/08 03:46:04;;;;;;;0.40;0.40;;;13.00;99.90;;;;;;5008445;28;20033;-78
2021/05/08 03:48:30;;;;;;;0.50;0.50;;;13.00;99.90;;;;;;5002043;28;20033;-76
2021/05/08 03:50:55;;;;;;;0.65;0.60;;;12.90;99.90;;;;;;5020965;28;20037;-76
2021/05/08 03:53:23;;;;;;;4.32;0.77;;;12.90;99.90;;;;;;5025896;28;20419;-77
2021/05/08 03:55:50;;;;;;;2.40;0.65;;;12.90;99.90;;;;;;5009255;28;20507;-75
2021/05/08 03:58:25;;;;;;;1.88;0.60;;;12.90;99.90;;;;;;4999911;28;20075;-75
2021/05/08 04:00:51;;;;;;;0.65;0.50;;;12.90;99.90;;;;;;5012814;28;20065;-76
2021/05/08 04:03:16;;;;;;;0.60;0.30;;;12.90;99.90;;;;;;4997740;28;20049;-77
2021/05/08 04:05:42;;;;;;;0.57;0.52;;;12.90;99.90;;;;;;5018685;28;20315;-76
2021/05/08 04:08:08;;;;;;;0.40;0.40;;;12.90;99.90;;;;;;5000336;28;20090;-75
2021/05/08 04:10:34;;;;;;;0.70;0.70;;;12.80;99.90;;;;;;4997757;28;20059;-78
2021/05/08 04:13:00;;;;;;;0.30;0.22;;;12.80;99.90;;;;;;5003879;28;20061;-77
2021/05/08 04:15:25;;;;;;;1.05;0.60;;;12.70;99.90;;;;;;5014583;28;20029;-76
2021/05/08 04:17:51;;;;;;;0.80;0.52;;;12.80;99.90;;;;;;5007011;28;20431;-76
2021/05/08 04:20:17;;;;;;;2.22;0.90;;;12.80;99.90;;;;;;5006708;28;20021;-76
2021/05/08 04:22:43;;;;;;;1.23;0.60;;;12.80;99.90;;;;;;5005701;28;20068;-75
2021/05/08 04:25:09;;;;;;;0.45;0.45;;;12.90;99.90;;;;;;5005488;28;20515;-77
2021/05/08 04:27:35;;;;;;;1.27;0.93;;;12.80;99.90;;;;;;5004431;28;20050;-77
2021/05/08 04:30:01;;;;;;;0.38;0.38;;;12.70;99.90;;;;;;4996528;28;20023;-76
2021/05/08 04:32:27;;;;;;;1.85;0.65;;;12.80;99.90;;;;;;5019037;28;20022;-77
2021/05/08 04:34:53;;;;;;;1.85;0.50;;;12.90;99.90;;;;;;5015119;28;20107;-77
2021/05/08 04:37:18;;;;;;;0.65;0.40;;;12.90;99.90;;;;;;4996766;28;20022;-78
2021/05/08 04:39:44;;;;;;;0.32;0.32;;;12.90;99.90;;;;;;4996161;28;20030;-77
2021/05/08 04:42:10;;;;;;;0.60;0.60;;;12.90;99.90;;;;;;5013087;28;20368;-76
2021/05/08 04:44:36;;;;;;;0.50;0.38;;;12.80;99.90;;;;;;5015154;28;20057;-77
2021/05/08 04:47:02;;;;;;;0.40;0.40;;;12.80;99.90;;;;;;5015108;28;20510;-76
2021/05/08 04:49:27;;;;;;;1.50;0.50;;;12.70;99.90;;;;;;5006292;28;20037;-77
2021/05/08 04:51:54;;;;;;;2.80;0.60;;;12.70;99.90;;;;;;4994337;28;20035;-77
2021/05/08 04:54:20;;;;;;;0.50;0.50;;;12.70;99.90;;;;;;4993385;28;20026;-75
2021/05/08 04:56:47;;;;;;;1.02;0.68;;;12.80;99.90;;;;;;5012834;28;20041;-78
2021/05/08 04:59:12;;;;;;;0.75;0.70;;;12.70;99.90;;;;;;5018095;28;20492;-77
2021/05/08 05:01:38;;;;;;;1.40;0.60;;;12.80;99.90;;;;;;4999280;28;20080;-77
2021/05/08 05:04:04;;;;;;;0.55;0.55;;;12.70;99.90;;;;;;5025697;28;20045;-76
2021/05/08 05:06:30;;;;;;;0.52;0.43;;;12.70;99.90;;;;;;5023192;28;20054;-78
2021/05/08 05:08:56;;;;;;;0.47;0.47;;;12.70;99.90;;;;;;4998516;28;20087;-76
2021/05/08 05:11:22;;;;;;;1.88;0.65;;;12.70;99.90;;;;;;5006258;28;20022;-77
2021/05/08 05:13:49;;;;;;;1.05;0.80;;;12.70;99.90;;;;;;4996026;28;20526;-76
2021/05/08 05:16:15;;;;;;;0.40;0.30;;;12.70;99.90;;;;;;5018592;28;20057;-77
2021/05/08 05:18:41;;;;;;;0.65;0.50;;;12.80;99.90;;;;;;4999706;28;20504;-77
2021/05/08 05:21:07;;;;;;;0.70;0.70;;;12.80;99.90;;;;;;4999555;28;20080;-76
2021/05/08 05:23:33;;;;;;;0.65;0.63;;;12.90;99.90;;;;;;5020786;28;20026;-77
2021/05/08 05:25:58;;;;;;;1.40;0.80;;;12.90;99.90;;;;;;5018104;28;20018;-76
2021/05/08 05:28:26;;;;;;;0.52;0.52;;;13.00;99.90;;;;;;5018421;28;20416;-77
2021/05/08 05:30:53;;;;;;;1.00;0.93;;;13.00;99.90;;;;;;5000723;28;20044;-76
2021/05/08 05:33:19;;;;;;;0.52;0.52;;;13.00;99.90;;;;;;5003311;28;20026;-77
2021/05/08 05:35:56;;;;;;;0.30;0.30;;;13.00;99.90;;;;;;5019768;28;20030;-77
2021/05/08 05:38:23;;;;;;;2.88;1.05;;;13.10;99.90;;;;;;5008896;28;20025;-78
2021/05/08 05:40:52;;;;;;;0.50;0.50;;;13.10;99.90;;;;;;5016918;28;20022;-77
2021/05/08 05:43:18;;;;;;;2.15;0.50;;;13.20;99.90;;;;;;5005124;28;20088;-76
2021/05/08 05:45:44;;;;;;;2.97;0.70;;;13.20;99.90;;;;;;4998681;28;20026;-77
2021/05/08 05:48:10;;;;;;;0.70;0.70;;;13.30;99.90;;;;;;5017903;28;20082;-78
2021/05/08 05:50:39;;;;;;;1.17;0.63;;;13.30;99.90;;;;;;5014046;28;20022;-78
2021/05/08 05:53:06;;;;;;;1.35;0.77;;;13.40;99.90;;;;;;4998713;28;20033;-68
2021/05/08 05:55:32;;;;;;;0.50;0.50;;;13.40;99.90;;;;;;5012258;28;20021;-69
2021/05/08 05:57:58;;;;;;;0.40;0.40;;;13.60;99.90;;;;;;4996358;28;20026;-70
2021/05/08 06:00:24;;;;;;;0.75;0.50;;;13.60;99.90;;;;;;4992834;28;20073;-70
2021/05/08 06:02:50;;;;;;;0.70;0.65;;;13.60;99.90;;;;;;4996339;28;20022;-70
2021/05/08 06:05:16;;;;;;;0.68;0.68;;;13.70;99.90;;;;;;4994084;28;20436;-69
2021/05/08 06:07:45;;;;;;;0.93;0.90;;;13.70;99.90;;;;;;4992687;28;20022;-70
2021/05/08 06:10:13;;;;;;;2.15;1.02;;;13.80;99.90;;;;;;5005920;28;20022;-68
2021/05/08 06:12:39;;;;;;;0.60;0.60;;;13.80;99.90;;;;;;4991621;28;20105;-70
2021/05/08 06:15:07;;;;;;;0.30;0.30;;;13.90;99.90;;;;;;4994521;28;20165;-68
2021/05/08 06:17:33;;;;;;;0.98;0.55;;;13.90;99.90;;;;;;5005540;28;20116;-70
2021/05/08 06:20:00;;;;;;;1.10;0.77;;;13.90;99.90;;;;;;4994057;28;20117;-69
2021/05/08 06:22:26;;;;;;;0.80;0.70;;;14.00;99.90;;;;;;5012252;28;20033;-68
2021/05/08 06:24:52;;;;;;;3.67;0.90;;;14.10;99.90;;;;;;4994822;28;20026;-69
2021/05/08 06:27:18;;;;;;;2.10;1.02;;;14.10;99.90;;;;;;5012334;28;20072;-68
2021/05/08 06:29:43;;;;;;;0.77;0.63;;;14.20;99.90;;;;;;4996148;28;20033;-70
2021/05/08 06:32:09;;;;;;;1.50;0.68;;;14.20;99.90;;;;;;5012272;28;20018;-69
2021/05/08 06:34:35;;;;;;;5.43;1.52;;;14.30;99.90;;;;;;4997398;28;20024;-72
2021/05/08 06:37:02;;;;;;;1.13;0.70;;;14.50;99.90;;;;;;5007026;28;20066;-71
2021/05/08 06:39:29;;;;;;;0.43;0.43;;;14.60;99.90;;;;;;5013709;28;20026;-68
2021/05/08 06:41:55;;;;;;;1.95;0.57;;;14.60;99.90;;;;;;5012258;28;20100;-69
2021/05/08 06:44:24;;;;;;;0.70;0.70;;;14.70;99.90;;;;;;5014359;28;20022;-69
2021/05/08 06:46:50;;;;;;;2.05;0.70;;;14.70;99.90;;;;;;5012622;28;20076;-69
2021/05/08 06:49:16;;;;;;;1.20;0.82;;;14.70;99.90;;;;;;4995486;28;20029;-68
2021/05/08 06:51:41;;;;;;;1.42;0.70;;;14.90;99.90;;;;;;5016644;28;20396;-69
2021/05/08 06:54:07;;;;;;;5.75;0.90;;;14.90;99.90;;;;;;4993176;28;20038;-68
2021/05/08 06:56:33;;;;;;;1.42;0.50;;;14.90;99.90;;;;;;5005666;28;20042;-69
2021/05/08 06:58:59;;;;;;;1.15;0.80;;;14.90;99.90;;;;;;4978746;28;20068;-69
2021/05/08 07:01:26;;;;;;;1.60;0.80;;;14.90;99.90;;;;;;4999645;28;20057;-70
2021/05/08 07:03:51;;;;;;;0.70;0.70;;;15.00;99.90;;;;;;4989369;28;20510;-69
2021/05/08 07:06:17;;;;;;;1.02;0.95;;;15.10;99.90;;;;;;4985912;28;20030;-70
2021/05/08 07:08:48;;;;;;;0.70;0.63;;;15.10;99.90;;;;;;4984369;28;20026;-69
2021/05/08 07:11:15;;;;;;;4.57;0.80;;;15.20;99.90;;;;;;5011451;28;20022;-70
2021/05/08 07:13:42;;;;;;;1.55;0.90;;;15.30;99.90;;;;;;5014697;28;20046;-69
2021/05/08 07:16:11;;;;;;;2.47;0.50;;;15.20;99.90;;;;;;4991342;28;20030;-71
2021/05/08 07:18:48;;;;;;;1.33;0.73;;;15.40;99.90;;;;;;5014274;28;20026;-73
2021/05/08 07:21:14;;;;;;;1.55;0.90;;;15.40;99.90;;;;;;5015715;28;20064;-72
2021/05/08 07:23:40;;;;;;;3.03;0.98;;;15.40;99.90;;;;;;4982672;28;20034;-72
2021/05/08 07:26:06;;;;;;;1.10;0.73;;;15.40;99.90;;;;;;5012290;28;20029;-72
2021/05/08 07:28:31;;;;;;;5.80;0.90;;;15.50;99.90;;;;;;4990799;28;20032;-72
2021/05/08 07:30:57;;;;;;;2.42;1.00;;;15.50;99.90;;;;;;5010348;28;20030;-71
2021/05/08 07:33:23;;;;;;;2.60;1.00;;;15.50;99.90;;;;;;4994601;28;20053;-71
2021/05/08 07:35:50;;;;;;;4.07;1.17;;;15.60;99.90;;;;;;5002948;28;20111;-71
2021/05/08 07:38:16;;;;;;;1.60;0.88;;;15.70;99.90;;;;;;5002679;28;20038;-74
2021/05/08 07:40:42;;;;;;;1.20;1.10;;;15.70;99.90;;;;;;4986897;28;20484;-72
2021/05/08 07:43:09;;;;;;;0.90;0.80;;;15.70;99.90;;;;;;4999115;28;20056;-71
2021/05/08 07:45:35;;;;;;;2.20;0.60;;;15.80;99.90;;;;;;4981612;28;20042;-71
2021/05/08 07:48:01;;;;;;;0.60;0.60;;;15.60;99.90;;;;;;4976130;28;20073;-72
2021/05/08 07:50:28;;;;;;;2.90;0.85;;;15.60;99.90;;;;;;4997255;28;20038;-72
2021/05/08 07:52:55;;;;;;;1.60;0.90;;;15.70;99.90;;;;;;4979075;28;20978;-74
2021/05/08 07:55:21;;;;;;;3.20;0.88;;;15.70;99.90;;;;;;4979539;28;20040;-72
2021/05/08 07:57:47;;;;;;;1.50;0.82;;;15.70;99.90;;;;;;4986976;28;20121;-71
2021/05/08 08:00:16;;;;;;;1.58;0.75;;;15.60;99.90;;;;;;5000442;28;20109;-71
2021/05/08 08:02:42;;;;;;;1.70;0.85;;;15.70;99.90;;;;;;5008301;28;20030;-71
2021/05/08 08:05:08;;;;;;;2.00;1.02;;;15.70;99.90;;;;;;5009689;28;20033;-72
2021/05/08 08:07:34;;;;;;;1.80;1.05;;;15.80;99.90;;;;;;5007898;28;20032;-71
2021/05/08 08:10:00;;;;;;;3.55;2.33;;;15.90;99.90;;;;;;4989898;28;20061;-71
2021/05/08 08:12:26;;;;;;;0.77;0.68;;;16.00;99.90;;;;;;5007278;28;20083;-71
2021/05/08 08:14:52;;;;;;;1.10;1.00;;;15.90;99.90;;;;;;4989721;28;20038;-71
2021/05/08 08:17:19;;;;;;;2.17;1.33;;;16.10;99.90;;;;;;4989121;28;20124;-70
2021/05/08 08:19:46;;;;;;;5.82;1.10;;;16.10;99.90;;;;;;4986385;28;20030;-71
2021/05/08 08:22:12;;;;;;;2.03;0.88;;;16.10;99.90;;;;;;4991767;28;20098;-69
2021/05/08 08:24:38;;;;;;;0.68;0.68;;;16.20;99.90;;;;;;4993291;28;20111;-72
2021/05/08 08:27:04;;;;;;;0.85;0.85;;;16.40;99.90;;;;;;4992367;28;20034;-72
2021/05/08 08:29:30;;;;;;;0.90;0.77;;;16.50;99.90;;;;;;4987176;28;20035;-70
2021/05/08 08:31:56;;;;;;;1.25;1.15;;;16.70;99.90;;;;;;4992493;28;20101;-74
2021/05/08 08:34:22;;;;;;;1.00;0.68;;;16.50;99.90;;;;;;4992743;28;20033;-74
2021/05/08 08:36:48;;;;;;;0.80;0.80;;;16.50;99.90;;;;;;5012453;28;20117;-73
2021/05/08 08:39:13;;;;;;;1.88;0.95;;;16.60;99.90;;;;;;4995321;28;20099;-74
2021/05/08 08:41:40;;;;;;;0.95;0.60;;;16.60;99.90;;;;;;5012876;28;20026;-74
2021/05/08 08:44:09;;;;;;;1.10;0.80;;;16.70;99.90;;;;;;5013311;28;20076;-75
2021/05/08 08:46:42;;;;;;;2.92;0.85;;;16.80;99.90;;;;;;4994897;28;20444;-74
2021/05/08 08:49:08;;;;;;;0.55;0.55;;;16.70;99.90;;;;;;4992385;28;20022;-74
2021/05/08 08:51:34;;;;;;;3.67;0.80;;;16.90;99.90;;;;;;5011993;28;20034;-76
2021/05/08 08:54:01;;;;;;;0.75;0.75;;;17.10;99.90;;;;;;5010311;28;20034;-75
2021/05/08 08:56:33;;;;;;;0.75;0.75;;;17.20;99.90;;;;;;5012037;28;20034;-75
2021/05/08 08:59:05;;;;;;;0.98;0.47;;;17.10;99.90;;;;;;5001752;28;20113;-73
2021/05/08 09:01:31;;;;;;;2.03;0.85;;;17.00;99.90;;;;;;5006470;28;20487;-72
2021/05/08 09:03:57;;;;;;;3.05;0.90;;;17.00;99.90;;;;;;4999548;28;20094;-76
2021/05/08 09:06:25;;;;;;;1.17;0.82;;;17.10;99.90;;;;;;4982698;28;20457;-74
2021/05/08 09:08:52;;;;;;;1.25;0.82;;;17.20;99.90;;;;;;4992365;28;20037;-72
2021/05/08 09:11:23;;;;;;;1.20;0.73;;;17.30;99.90;;;;;;4994654;28;20026;-72
2021/05/08 09:14:21;;;;;;;1.13;0.80;;;17.30;99.90;;;;;;4985496;28;20043;-72
2021/05/08 09:17:14;;;;;;;0.93;0.93;;;17.40;99.90;;;;;;4980657;28;20550;-73
2021/05/08 09:19:48;;;;;;;1.08;0.85;;;17.50;99.90;;;;;;5004758;28;20101;-73
2021/05/08 09:22:36;;;;;;;1.55;1.38;;;17.60;99.90;;;;;;5008663;28;20197;-74
2021/05/08 09:25:04;;;;;;;1.98;0.90;;;17.70;99.90;;;;;;4989442;28;20304;-73
2021/05/08 09:27:39;;;;;;;5.57;1.73;;;17.50;99.90;;;;;;4992013;28;20033;-72
2021/05/08 09:30:21;;;;;;;1.67;0.95;;;17.50;99.90;;;;;;5005639;28;20062;-72
2021/05/08 09:32:54;;;;;;;1.20;1.10;;;17.50;99.90;;;;;;4991021;28;20026;-72
2021/05/08 09:35:34;;;;;;;1.75;0.55;;;17.60;99.90;;;;;;4991119;28;20072;-73
2021/05/08 09:38:10;;;;;;;1.73;0.75;;;17.60;99.90;;;;;;5010694;28;20022;-73
2021/05/08 09:40:38;;;;;;;2.90;0.80;;;17.80;99.90;;;;;;4978580;28;20169;-71
2021/05/08 09:43:13;;;;;;;1.58;0.88;;;17.80;99.90;;;;;;4987594;28;20523;-72
2021/05/08 09:45:41;;;;;;;1.25;1.00;;;17.90;99.90;;;;;;5008920;28;20072;-73
2021/05/08 09:48:32;;;;;;;4.13;1.40;;;17.80;99.90;;;;;;5002168;28;20176;-72
2021/05/08 09:51:27;;;;;;;3.05;0.80;;;18.10;99.90;;;;;;5008858;28;20022;-71
2021/05/08 09:53:53;;;;;;;0.93;0.80;;;18.10;99.90;;;;;;4990463;28;20026;-72
2021/05/08 09:56:33;;;;;;;2.45;0.77;;;18.20;99.90;;;;;;5011201;28;20022;-72
2021/05/08 09:59:24;;;;;;;1.30;0.82;;;18.20;99.90;;;;;;5009264;28;20397;-72
2021/05/08 10:02:11;;;;;;;1.17;1.00;;;18.20;99.90;;;;;;4988708;28;20034;-72
2021/05/08 10:04:50;;;;;;;1.55;1.45;;;18.10;99.90;;;;;;4988153;28;20033;-72
2021/05/08 10:07:22;;;;;;;2.17;1.27;;;18.10;99.90;;;;;;5005533;28;20018;-71
2021/05/08 10:09:51;;;;;;;1.27;0.82;;;18.20;99.90;;;;;;4993712;28;20029;-73
2021/05/08 10:12:21;;;;;;;1.35;0.75;;;18.40;99.90;;;;;;5011062;28;20030;-72
2021/05/08 10:14:52;;;;;;;0.63;0.63;;;18.50;99.90;;;;;;5013369;28;20030;-72
2021/05/08 10:17:19;;;;;;;2.20;1.15;;;18.60;99.90;;;;;;4994565;28;20388;-72
2021/05/08 10:19:50;;;;;;;1.00;0.82;;;18.50;99.90;;;;;;5012331;28;20021;-71
2021/05/08 10:22:17;;;;;;;5.00;0.88;;;18.40;99.90;;;;;;5012173;28;20022;-72
2021/05/08 10:24:45;;;;;;;1.52;1.40;;;18.40;99.90;;;;;;4994583;28;20033;-72
2021/05/08 10:27:12;;;;;;;4.03;1.10;;;18.50;99.90;;;;;;4992518;28;20053;-71
2021/05/08 10:29:39;;;;;;;3.55;1.10;;;18.60;99.90;;;;;;5010963;28;20018;-72
2021/05/08 10:32:08;;;;;;;1.63;0.93;;;18.90;99.90;;;;;;5012405;28;20025;-73
2021/05/08 10:34:36;;;;;;;0.70;0.70;;;19.00;99.90;;;;;;5012667;28;20079;-71
2021/05/08 10:37:12;;;;;;;1.75;0.77;;;18.90;99.90;;;;;;4993642;28;20056;-71
2021/05/08 10:39:50;;;;;;;2.70;0.52;;;18.90;99.90;;;;;;5011134;28;20033;-71
2021/05/08 10:42:45;;;;;;;0.80;0.80;;;19.00;99.90;;;;;;5006388;28;20026;-71
2021/05/08 10:45:20;;;;;;;1.63;0.75;;;18.90;99.90;;;;;;4993105;28;20029;-72
2021/05/08 10:48:04;;;;;;;1.45;0.80;;;19.00;99.90;;;;;;5009040;28;20026;-71
2021/05/08 10:50:36;;;;;;;1.00;0.98;;;19.00;99.90;;;;;;5008834;28;20025;-71
2021/05/08 10:53:09;;;;;;;0.60;0.60;;;19.00;99.90;;;;;;4985523;28;20027;-70
2021/05/08 10:55:57;;;;;;;4.30;1.05;;;19.00;99.90;;;;;;5012304;28;20061;-73
2021/05/08 10:58:23;;;;;;;1.30;1.05;;;19.20;99.90;;;;;;5011983;28;20648;-71
2021/05/08 11:00:57;;;;;;;3.13;1.10;;;19.40;99.90;;;;;;4989550;28;20260;-72
2021/05/08 11:03:25;;;;;;;2.30;1.88;;;19.60;99.90;;;;;;5012442;28;20340;-73
2021/05/08 11:06:03;;;;;;;1.40;0.82;;;19.60;99.90;;;;;;4994582;28;20033;-73
2021/05/08 11:08:29;;;;;;;4.32;1.92;;;19.60;99.90;;;;;;5003979;28;20445;-73
2021/05/08 11:11:00;;;;;;;4.57;1.63;;;19.70;99.90;;;;;;5011548;28;20105;-73
2021/05/08 11:13:28;;;;;;;4.95;1.55;;;19.80;99.90;;;;;;4990800;28;20022;-72
2021/05/08 11:21:17;;;;;;;0.88;0.80;;;19.60;99.90;;;;;;5010289;28;20558;-71
2021/05/08 11:24:08;;;;;;;1.85;1.10;;;19.60;99.90;;;;;;4994225;28;20042;-72
2021/05/08 11:26:42;;;;;;;1.95;0.93;;;19.60;99.90;;;;;;4987699;28;20061;-71
2021/05/08 11:29:09;;;;;;;1.50;1.38;;;19.80;99.90;;;;;;4994533;28;20032;-70
2021/05/08 11:31:43;;;;;;;3.67;0.68;;;19.80;99.90;;;;;;4992910;28;20077;-71
2021/05/08 11:34:20;;;;;;;1.10;1.00;;;19.80;99.90;;;;;;4994269;28;20030;-71
2021/05/08 11:37:02;;;;;;;3.35;1.55;;;19.80;99.90;;;;;;5010307;28;20025;-71
2021/05/08 11:39:34;;;;;;;1.38;1.10;;;19.70;99.60;;;;;;4985038;28;20044;-71
2021/05/08 11:42:03;;;;;;;2.53;1.10;;;19.60;99.40;;;;;;5009948;28;20040;-72
2021/05/08 11:44:32;;;;;;;1.25;1.15;;;19.60;99.50;;;;;;5011757;28;20036;-72
2021/05/08 11:47:28;;;;;;;1.05;0.70;;;19.60;99.80;;;;;;5010846;28;20018;-71
2021/05/08 11:50:14;;;;;;;0.93;0.85;;;19.70;99.90;;;;;;5011359;28;20373;-71
2021/05/08 11:52:41;;;;;;;3.58;1.55;;;19.90;99.90;;;;;;5004237;28;20072;-70
2021/05/08 11:55:16;;;;;;;0.80;0.60;;;20.10;99.60;;;;;;4991847;28;20117;-72
2021/05/08 11:57:46;;;;;;;4.10;1.73;;;20.30;99.20;;;;;;5010456;28;20554;-72
2021/05/08 12:00:14;;;;;;;1.23;0.82;;;20.10;99.90;;;;;;5006505;28;20037;-72
2021/05/08 12:02:40;;;;;;;1.10;1.00;;;19.40;99.90;;;;;;5006737;28;20029;-71
2021/05/08 12:05:06;;;;;;;2.78;1.80;;;18.80;99.90;;;;;;5010526;28;20052;-70
2021/05/08 12:07:31;;;;;;;1.33;0.90;;;18.60;99.90;;;;;;5010595;28;20093;-70
2021/05/08 12:10:19;;;;;;;0.95;0.95;;;18.60;99.90;;;;;;4990842;28;20041;-72
2021/05/08 12:12:52;;;;;;;1.55;0.93;;;18.60;99.90;;;;;;4989564;28;20026;-72
2021/05/08 12:15:31;;;;;;;1.60;1.08;;;18.60;99.90;;;;;;4993476;28;20131;-71
2021/05/08 12:17:58;;;;;;;1.00;0.90;;;18.60;99.90;;;;;;4991411;28;20030;-72
2021/05/08 12:20:26;;;;;;;1.13;0.73;;;18.60;99.90;;;;;;5006512;28;20120;-71
2021/05/08 12:22:54;;;;;;;1.27;1.05;;;18.70;99.90;;;;;;4989473;28;20036;-71
2021/05/08 12:25:24;;;;;;;4.75;1.23;;;18.60;99.90;;;;;;4992994;28;20622;-72
2021/05/08 12:28:17;;;;;;;1.50;0.80;;;18.70;99.90;;;;;;5009851;28;20034;-71
2021/05/08 12:30:44;;;;;;;2.72;0.75;;;18.80;99.90;;;;;;5004395;28;20026;-71
2021/05/08 12:33:21;;;;;;;3.97;0.88;;;18.80;99.90;;;;;;4993028;28;20026;-71
2021/05/08 12:35:47;;;;;;;1.80;0.93;;;18.80;99.90;;;;;;4987804;28;20081;-71
2021/05/08 12:38:13;;;;;;;2.35;1.45;;;19.00;99.90;;;;;;4992539;28;20096;-71
2021/05/08 12:40:39;;;;;;;1.38;1.02;;;19.10;99.90;;;;;;4992122;28;20045;-71
2021/05/08 12:43:05;;;;;;;1.67;1.02;;;19.00;99.90;;;;;;5009579;28;20041;-72
2021/05/08 12:45:30;;;;;;;0.60;0.60;;;18.90;99.90;;;;;;4992278;28;20101;-71
2021/05/08 12:47:56;;;;;;;1.15;0.90;;;18.90;99.90;;;;;;4993628;28;20026;-71
2021/05/08 12:50:29;;;;;;;1.67;0.77;;;19.10;99.90;;;;;;4991343;28;20057;-72
2021/05/08 12:53:04;;;;;;;2.65;0.80;;;19.30;99.90;;;;;;4987492;28;20037;-71
2021/05/08 12:55:35;;;;;;;5.28;1.23;;;19.40;99.90;;;;;;4981679;28;20488;-71
2021/05/08 12:58:11;;;;;;;5.88;0.85;;;19.40;99.90;;;;;;5009547;28;20069;-71
2021/05/08 13:00:50;;;;;;;1.30;0.82;;;19.60;99.90;;;;;;4989952;28;20052;-71